Time;durP1;ratioP1;P1;durP2;ratioP2;P2;SDS_P1;SDS_P2;PMS_P1;PMS_P2;Temp;Humidity;BMP_temperature;BMP_pressure;BME280_temperature;BME280_humidity;BME280_pressure;Samples;Min_cycle;Max_cycle;Signal;HPM_P1;HPM_P2
2023/07/06 00:02:08;;;;;;;1.83;1.30;;;;;;;;;;5058668;28;20024;-79
2023/07/06 00:04:36;;;;;;;1.55;1.40;;;;;;;;;;5058373;28;20024;-78
2023/07/06 00:07:02;;;;;;;2.38;1.60;;;;;;;;;;5076780;28;20383;-78
2023/07/06 00:09:27;;;;;;;1.80;1.30;;;;;;;;;;5058353;28;20024;-78
2023/07/06 00:11:53;;;;;;;1.65;1.35;;;;;;;;;;5047369;28;20080;-78
2023/07/06 00:14:18;;;;;;;1.50;1.33;;;;;;;;;;5078732;28;20111;-79
2023/07/06 00:16:47;;;;;;;2.22;1.55;;;;;;;;;;5096667;28;20032;-79
2023/07/06 00:19:17;;;;;;;1.80;1.30;;;;;;;;;;5096760;28;20028;-79
2023/07/06 00:21:43;;;;;;;1.40;1.30;;;;;;;;;;5078956;28;20031;-79
2023/07/06 00:24:10;;;;;;;1.63;1.30;;;;;;;;;;5078058;28;20032;-79
2023/07/06 00:26:35;;;;;;;1.50;1.20;;;;;;;;;;5096238;28;20456;-78
2023/07/06 00:29:00;;;;;;;1.67;1.20;;;;;;;;;;5061309;28;20097;-78
2023/07/06 00:31:32;;;;;;;1.38;1.13;;;;;;;;;;5096438;28;20036;-78
2023/07/06 00:34:04;;;;;;;1.80;1.60;;;;;;;;;;5096013;28;20031;-79
2023/07/06 00:36:31;;;;;;;1.60;1.50;;;;;;;;;;5078355;28;20035;-78
2023/07/06 00:38:56;;;;;;;3.33;1.48;;;;;;;;;;5078176;28;20032;-78
2023/07/06 00:41:22;;;;;;;1.40;1.30;;;;;;;;;;5096003;28;20038;-78
2023/07/06 00:43:54;;;;;;;2.13;1.40;;;;;;;;;;5060003;28;20028;-79
2023/07/06 00:46:21;;;;;;;2.38;1.52;;;;;;;;;;5078318;28;20074;-79
2023/07/06 00:48:48;;;;;;;1.67;1.10;;;;;;;;;;5061259;28;20040;-79
2023/07/06 00:51:21;;;;;;;2.35;1.30;;;;;;;;;;5096038;28;20028;-79
2023/07/06 00:53:51;;;;;;;1.55;1.45;;;;;;;;;;5077744;28;20024;-80
2023/07/06 00:56:19;;;;;;;1.60;1.30;;;;;;;;;;5078102;28;20082;-79
2023/07/06 00:58:47;;;;;;;2.30;1.40;;;;;;;;;;5077632;28;20391;-79
2023/07/06 01:01:16;;;;;;;1.25;1.15;;;;;;;;;;5061021;28;20056;-79
2023/07/06 01:03:48;;;;;;;1.20;1.17;;;;;;;;;;5077622;28;20522;-79
2023/07/06 01:06:20;;;;;;;1.40;1.27;;;;;;;;;;5077773;28;20035;-79
2023/07/06 01:08:49;;;;;;;4.38;1.55;;;;;;;;;;5060641;28;20020;-78
2023/07/06 01:11:15;;;;;;;1.40;1.30;;;;;;;;;;5060377;28;20035;-79
2023/07/06 01:13:48;;;;;;;1.60;1.33;;;;;;;;;;5095246;28;20465;-78
2023/07/06 01:16:22;;;;;;;1.25;1.13;;;;;;;;;;5095565;28;20081;-79
2023/07/06 01:19:03;;;;;;;1.55;1.30;;;;;;;;;;5077391;28;20038;-79
2023/07/06 01:21:44;;;;;;;1.50;1.30;;;;;;;;;;5077118;28;20032;-79
2023/07/06 01:24:41;;;;;;;1.90;1.20;;;;;;;;;;5095072;28;20032;-79
2023/07/06 01:27:22;;;;;;;3.85;1.20;;;;;;;;;;5076980;28;20052;-79
2023/07/06 01:30:09;;;;;;;1.30;1.20;;;;;;;;;;5094995;28;20099;-79
2023/07/06 01:32:39;;;;;;;1.33;1.23;;;;;;;;;;5094942;28;20027;-79
2023/07/06 01:35:14;;;;;;;1.48;1.38;;;;;;;;;;5094935;28;20107;-79
2023/07/06 01:37:42;;;;;;;1.83;1.25;;;;;;;;;;5076666;28;20031;-78
2023/07/06 01:40:11;;;;;;;1.67;1.27;;;;;;;;;;5076710;28;20036;-79
2023/07/06 01:42:38;;;;;;;1.35;1.20;;;;;;;;;;5060889;28;20154;-79
2023/07/06 01:45:07;;;;;;;2.17;1.33;;;;;;;;;;5076653;28;20020;-79
2023/07/06 01:47:37;;;;;;;2.80;1.20;;;;;;;;;;5077264;28;20073;-79
2023/07/06 01:50:03;;;;;;;3.05;1.40;;;;;;;;;;5094609;28;20032;-79
2023/07/06 01:52:45;;;;;;;4.38;1.50;;;;;;;;;;5076711;28;20031;-80
2023/07/06 01:55:20;;;;;;;1.70;1.30;;;;;;;;;;5076348;28;20048;-79
2023/07/06 01:58:04;;;;;;;1.38;1.27;;;;;;;;;;5077082;28;20032;-79
2023/07/06 02:00:30;;;;;;;1.60;1.38;;;;;;;;;;5094487;28;20012;-79
2023/07/06 02:02:57;;;;;;;1.30;1.20;;;;;;;;;;5059519;28;20032;-79
2023/07/06 02:05:23;;;;;;;2.75;1.40;;;;;;;;;;5059338;28;20028;-79
2023/07/06 02:07:52;;;;;;;2.08;1.40;;;;;;;;;;5076737;28;20085;-79
2023/07/06 02:10:18;;;;;;;1.73;1.38;;;;;;;;;;5076832;28;20035;-78
2023/07/06 02:12:47;;;;;;;2.65;1.50;;;;;;;;;;5065518;28;20044;-79
2023/07/06 02:15:16;;;;;;;1.42;1.30;;;;;;;;;;5073878;28;20055;-79
2023/07/06 02:17:42;;;;;;;1.45;1.30;;;;;;;;;;5074159;28;20055;-79
2023/07/06 02:20:08;;;;;;;1.73;1.40;;;;;;;;;;5056211;28;20033;-79
2023/07/06 02:22:34;;;;;;;1.33;1.23;;;;;;;;;;5056434;28;20033;-79
2023/07/06 02:24:59;;;;;;;1.55;1.27;;;;;;;;;;5074016;28;20373;-79
2023/07/06 02:27:25;;;;;;;3.08;1.73;;;;;;;;;;5073498;28;20028;-78
2023/07/06 02:29:50;;;;;;;2.53;1.25;;;;;;;;;;5055864;28;20467;-79
2023/07/06 02:32:15;;;;;;;1.80;1.42;;;;;;;;;;5055941;28;20024;-79
2023/07/06 02:34:41;;;;;;;3.72;1.52;;;;;;;;;;5073532;28;20062;-78
2023/07/06 02:37:06;;;;;;;3.00;1.48;;;;;;;;;;5055793;28;20085;-78
2023/07/06 02:39:31;;;;;;;5.35;1.40;;;;;;;;;;5055941;28;20028;-79
2023/07/06 02:41:57;;;;;;;3.78;1.42;;;;;;;;;;5073524;28;20072;-78
2023/07/06 02:44:23;;;;;;;2.25;1.65;;;;;;;;;;5074008;28;20024;-79
2023/07/06 02:46:49;;;;;;;2.45;1.30;;;;;;;;;;5055318;28;20031;-79
2023/07/06 02:49:16;;;;;;;2.15;1.20;;;;;;;;;;5038776;28;20429;-79
2023/07/06 02:51:41;;;;;;;1.40;1.20;;;;;;;;;;5055586;28;20067;-79
2023/07/06 02:54:09;;;;;;;2.13;1.50;;;;;;;;;;5055358;28;20036;-79
2023/07/06 02:56:35;;;;;;;1.90;1.48;;;;;;;;;;5038874;28;20056;-80
2023/07/06 02:59:00;;;;;;;2.13;1.40;;;;;;;;;;5055477;28;20438;-79
2023/07/06 03:01:26;;;;;;;2.33;1.50;;;;;;;;;;5055483;28;20028;-79
2023/07/06 03:03:51;;;;;;;2.28;1.60;;;;;;;;;;5038758;28;20028;-79
2023/07/06 03:06:18;;;;;;;1.60;1.40;;;;;;;;;;5054820;28;20028;-79
2023/07/06 03:08:44;;;;;;;2.15;1.33;;;;;;;;;;5054941;28;20034;-79
2023/07/06 03:11:10;;;;;;;1.15;1.05;;;;;;;;;;5038586;28;20025;-79
2023/07/06 03:13:36;;;;;;;2.35;1.67;;;;;;;;;;5090855;28;20409;-79
2023/07/06 03:16:03;;;;;;;4.95;1.70;;;;;;;;;;5075129;28;20029;-79
2023/07/06 03:18:28;;;;;;;3.22;1.40;;;;;;;;;;5058866;28;20521;-78
2023/07/06 03:20:55;;;;;;;6.32;1.50;;;;;;;;;;5075435;28;20203;-78
2023/07/06 03:23:21;;;;;;;2.55;1.40;;;;;;;;;;5093393;28;20030;-78
2023/07/06 03:25:50;;;;;;;1.88;1.30;;;;;;;;;;5058797;28;20027;-78
2023/07/06 03:28:15;;;;;;;2.75;1.48;;;;;;;;;;5075097;28;20123;-78
2023/07/06 03:30:43;;;;;;;1.98;1.40;;;;;;;;;;5093105;28;20518;-79
2023/07/06 03:33:09;;;;;;;1.83;1.50;;;;;;;;;;5074930;28;20036;-79
2023/07/06 03:35:34;;;;;;;2.00;1.25;;;;;;;;;;5093018;28;20484;-79
2023/07/06 03:37:59;;;;;;;1.65;1.23;;;;;;;;;;5075082;28;20043;-79
2023/07/06 03:40:29;;;;;;;4.03;1.50;;;;;;;;;;5093495;28;20026;-79
2023/07/06 03:42:56;;;;;;;2.42;1.60;;;;;;;;;;5093362;28;20035;-79
2023/07/06 03:45:22;;;;;;;3.78;1.60;;;;;;;;;;5075184;28;20092;-79
2023/07/06 03:47:49;;;;;;;2.00;1.35;;;;;;;;;;5058109;28;20549;-79
2023/07/06 03:50:16;;;;;;;1.90;1.40;;;;;;;;;;5075159;28;20386;-79
2023/07/06 03:52:41;;;;;;;2.45;1.25;;;;;;;;;;5075097;28;20098;-79
2023/07/06 03:55:12;;;;;;;6.85;1.60;;;;;;;;;;5075214;28;20020;-79
2023/07/06 03:57:38;;;;;;;2.28;1.33;;;;;;;;;;5074807;28;20020;-79
2023/07/06 04:00:23;;;;;;;2.83;1.65;;;;;;;;;;5074958;28;20032;-79
2023/07/06 04:02:54;;;;;;;2.45;1.50;;;;;;;;;;5060711;28;20031;-77
2023/07/06 04:05:23;;;;;;;3.92;1.45;;;;;;;;;;5075032;28;20016;-76
2023/07/06 04:07:52;;;;;;;2.17;1.55;;;;;;;;;;5074977;28;20074;-76
2023/07/06 04:10:21;;;;;;;1.70;1.50;;;;;;;;;;5075287;28;20024;-78
2023/07/06 04:12:50;;;;;;;2.28;1.30;;;;;;;;;;5046921;28;20139;-76
2023/07/06 04:15:20;;;;;;;3.75;1.83;;;;;;;;;;5073254;28;20451;-77
2023/07/06 04:17:53;;;;;;;2.92;1.95;;;;;;;;;;5055588;28;20451;-76
2023/07/06 04:20:27;;;;;;;5.13;1.83;;;;;;;;;;5059494;28;20024;-76
2023/07/06 04:22:57;;;;;;;;;;;;;;;;;;5042856;28;20356;-76
2023/07/06 04:25:29;;;;;;;4.15;1.80;;;;;;;;;;5058950;28;19913;-76
2023/07/06 04:28:05;;;;;;;5.18;2.05;;;;;;;;;;5059119;28;20095;-77
2023/07/06 04:30:33;;;;;;;13.77;3.10;;;;;;;;;;5058973;28;20099;-78
2023/07/06 04:32:59;;;;;;;8.15;2.30;;;;;;;;;;5058365;28;20051;-79
2023/07/06 04:35:24;;;;;;;7.00;2.40;;;;;;;;;;5041372;28;20028;-75
2023/07/06 04:37:50;;;;;;;7.78;2.67;;;;;;;;;;5058256;28;20040;-79
2023/07/06 04:40:20;;;;;;;4.95;2.30;;;;;;;;;;5041372;28;20467;-79
2023/07/06 04:42:47;;;;;;;7.95;2.50;;;;;;;;;;5058612;28;20025;-78
2023/07/06 04:45:14;;;;;;;5.63;2.60;;;;;;;;;;5041147;28;20040;-77
2023/07/06 04:47:40;;;;;;;8.30;2.40;;;;;;;;;;5075796;28;20037;-78
2023/07/06 04:50:11;;;;;;;6.05;2.40;;;;;;;;;;5041425;28;20476;-78
2023/07/06 04:52:37;;;;;;;5.10;2.25;;;;;;;;;;5058009;28;20020;-76
2023/07/06 04:55:05;;;;;;;5.00;1.88;;;;;;;;;;5076208;28;20032;-77
2023/07/06 04:57:31;;;;;;;7.05;2.10;;;;;;;;;;5075865;28;20028;-76
2023/07/06 04:59:56;;;;;;;6.55;2.30;;;;;;;;;;5075817;28;20033;-78
2023/07/06 05:02:22;;;;;;;9.20;3.22;;;;;;;;;;5057392;28;20036;-77
2023/07/06 05:04:48;;;;;;;22.63;5.18;;;;;;;;;;5075582;28;20484;-77
2023/07/06 05:07:14;;;;;;;15.48;4.70;;;;;;;;;;5040842;28;20379;-77
2023/07/06 05:09:42;;;;;;;18.25;4.78;;;;;;;;;;5057851;28;20115;-78
2023/07/06 05:12:09;;;;;;;11.75;4.10;;;;;;;;;;5081134;28;20074;-77
2023/07/06 05:14:35;;;;;;;21.60;4.32;;;;;;;;;;5078059;28;20040;-77
2023/07/06 05:17:03;;;;;;;13.00;4.28;;;;;;;;;;5095852;28;20028;-77
2023/07/06 05:19:29;;;;;;;14.77;3.88;;;;;;;;;;5095364;28;20031;-77
2023/07/06 05:21:56;;;;;;;11.18;3.65;;;;;;;;;;5077642;28;20474;-77
2023/07/06 05:24:24;;;;;;;12.75;3.72;;;;;;;;;;5077375;28;20032;-77
2023/07/06 05:26:49;;;;;;;11.20;3.63;;;;;;;;;;5060425;28;20024;-75
2023/07/06 05:29:15;;;;;;;7.68;3.15;;;;;;;;;;5095309;28;20035;-78
2023/07/06 05:31:42;;;;;;;8.15;2.75;;;;;;;;;;5095046;28;20042;-78
2023/07/06 05:34:08;;;;;;;9.05;3.05;;;;;;;;;;5043672;28;20114;-77
2023/07/06 05:36:36;;;;;;;6.75;2.85;;;;;;;;;;5077671;28;20036;-78
2023/07/06 05:39:03;;;;;;;9.02;2.78;;;;;;;;;;5077589;28;20042;-76
2023/07/06 05:41:29;;;;;;;8.55;2.78;;;;;;;;;;5077046;28;20039;-78
2023/07/06 05:43:54;;;;;;;8.63;2.80;;;;;;;;;;5077411;28;20032;-78
2023/07/06 05:46:20;;;;;;;5.68;2.65;;;;;;;;;;5095121;28;20539;-78
2023/07/06 05:48:45;;;;;;;12.57;3.35;;;;;;;;;;5095286;28;20035;-77
2023/07/06 05:51:10;;;;;;;11.13;2.90;;;;;;;;;;5077142;28;20170;-77
2023/07/06 05:53:36;;;;;;;8.07;2.78;;;;;;;;;;5076602;28;20032;-78
2023/07/06 05:56:01;;;;;;;10.50;2.72;;;;;;;;;;5076669;28;20024;-76
2023/07/06 05:58:27;;;;;;;7.30;2.20;;;;;;;;;;5077200;28;20046;-76
2023/07/06 06:00:53;;;;;;;10.05;2.60;;;;;;;;;;5095122;28;20486;-78
2023/07/06 06:03:19;;;;;;;7.88;2.60;;;;;;;;;;5095004;28;20446;-76
2023/07/06 06:05:45;;;;;;;5.47;2.20;;;;;;;;;;5094471;28;20059;-76
2023/07/06 06:08:11;;;;;;;8.23;2.85;;;;;;;;;;5094952;28;20028;-76
2023/07/06 06:10:37;;;;;;;9.13;2.80;;;;;;;;;;5077136;28;20459;-76
2023/07/06 06:13:02;;;;;;;7.57;2.30;;;;;;;;;;5063270;28;20055;-76
2023/07/06 06:15:28;;;;;;;5.70;2.53;;;;;;;;;;5074271;28;20028;-76
2023/07/06 06:17:53;;;;;;;12.57;2.65;;;;;;;;;;5039908;28;20439;-76
2023/07/06 06:20:19;;;;;;;6.95;2.60;;;;;;;;;;5056129;28;20028;-77
2023/07/06 06:22:45;;;;;;;12.02;2.38;;;;;;;;;;5074017;28;20036;-76
2023/07/06 06:25:10;;;;;;;4.72;2.10;;;;;;;;;;5056005;28;20037;-77
2023/07/06 06:27:36;;;;;;;5.25;2.22;;;;;;;;;;5055754;28;20491;-76
2023/07/06 06:30:05;;;;;;;5.65;2.10;;;;;;;;;;5073985;28;20081;-76
2023/07/06 06:32:30;;;;;;;7.70;2.20;;;;;;;;;;5056362;28;20031;-77
2023/07/06 06:34:56;;;;;;;7.38;2.53;;;;;;;;;;5055865;28;20387;-77
2023/07/06 06:37:21;;;;;;;14.88;2.47;;;;;;;;;;5073739;28;20036;-77
2023/07/06 06:39:46;;;;;;;4.20;2.17;;;;;;;;;;5073917;28;20048;-77
2023/07/06 06:42:13;;;;;;;4.70;2.30;;;;;;;;;;5072823;28;20025;-77
2023/07/06 06:44:38;;;;;;;6.00;2.58;;;;;;;;;;5073858;28;20034;-77
2023/07/06 06:47:04;;;;;;;5.22;2.03;;;;;;;;;;5039402;28;20394;-77
2023/07/06 06:49:31;;;;;;;5.05;2.17;;;;;;;;;;5073588;28;20033;-77
2023/07/06 06:51:56;;;;;;;4.55;2.20;;;;;;;;;;5055673;28;20479;-77
2023/07/06 06:54:22;;;;;;;6.40;2.00;;;;;;;;;;5055777;28;20094;-77
2023/07/06 06:56:49;;;;;;;7.30;2.35;;;;;;;;;;5055835;28;20048;-76
2023/07/06 06:59:14;;;;;;;8.57;2.33;;;;;;;;;;5055752;28;20510;-77
2023/07/06 07:01:40;;;;;;;4.35;1.90;;;;;;;;;;5038796;28;20032;-76
2023/07/06 07:04:09;;;;;;;8.43;2.40;;;;;;;;;;5055784;28;20048;-77
2023/07/06 07:06:35;;;;;;;5.22;2.08;;;;;;;;;;5039035;28;20065;-77
2023/07/06 07:09:02;;;;;;;5.43;2.38;;;;;;;;;;5055815;28;20020;-77
2023/07/06 07:11:28;;;;;;;6.15;2.17;;;;;;;;;;5055210;28;20399;-78
2023/07/06 07:13:53;;;;;;;6.18;2.25;;;;;;;;;;5075642;28;20039;-77
2023/07/06 07:16:19;;;;;;;6.65;2.40;;;;;;;;;;5075673;28;20028;-77
2023/07/06 07:18:45;;;;;;;5.03;2.40;;;;;;;;;;5058916;28;20398;-77
2023/07/06 07:21:12;;;;;;;5.03;2.45;;;;;;;;;;5094109;28;20107;-77
2023/07/06 07:23:42;;;;;;;5.28;2.17;;;;;;;;;;5058716;28;20047;-77
2023/07/06 07:26:19;;;;;;;5.15;2.30;;;;;;;;;;5093487;28;20094;-77
2023/07/06 07:28:48;;;;;;;4.65;2.28;;;;;;;;;;5076739;28;20517;-77
2023/07/06 07:31:15;;;;;;;5.82;2.38;;;;;;;;;;5076014;28;20091;-77
2023/07/06 07:33:44;;;;;;;5.70;2.08;;;;;;;;;;5093156;28;20463;-77
2023/07/06 07:36:11;;;;;;;4.20;2.00;;;;;;;;;;5075968;28;20180;-77
2023/07/06 07:38:37;;;;;;;4.43;2.10;;;;;;;;;;5058483;28;20078;-77
2023/07/06 07:41:06;;;;;;;5.47;2.33;;;;;;;;;;5058463;28;20115;-76
2023/07/06 07:43:33;;;;;;;6.72;2.30;;;;;;;;;;5093465;28;20487;-77
2023/07/06 07:46:06;;;;;;;5.65;2.58;;;;;;;;;;5075281;28;20036;-77
2023/07/06 07:48:35;;;;;;;4.90;2.65;;;;;;;;;;5075052;28;20035;-77
2023/07/06 07:51:03;;;;;;;5.03;2.30;;;;;;;;;;5075579;28;20039;-77
2023/07/06 07:53:34;;;;;;;4.38;2.28;;;;;;;;;;5076388;28;20024;-77
2023/07/06 07:56:00;;;;;;;4.40;2.35;;;;;;;;;;5062508;28;20554;-77
2023/07/06 07:58:26;;;;;;;3.90;1.95;;;;;;;;;;5079280;28;20112;-77
2023/07/06 08:00:55;;;;;;;4.28;2.25;;;;;;;;;;5079146;28;20021;-77
2023/07/06 08:03:24;;;;;;;5.45;2.50;;;;;;;;;;5079264;28;20513;-77
2023/07/06 08:05:53;;;;;;;5.68;2.45;;;;;;;;;;5078784;28;20390;-77
2023/07/06 08:08:20;;;;;;;4.22;2.30;;;;;;;;;;5078882;28;20394;-78
2023/07/06 08:10:45;;;;;;;4.82;2.47;;;;;;;;;;5078825;28;20031;-77
2023/07/06 08:13:11;;;;;;;5.07;2.20;;;;;;;;;;5096781;28;20054;-77
2023/07/06 08:15:39;;;;;;;5.72;2.70;;;;;;;;;;5096949;28;20024;-78
2023/07/06 08:18:07;;;;;;;4.75;2.70;;;;;;;;;;5078507;28;20043;-77
2023/07/06 08:20:33;;;;;;;4.30;2.33;;;;;;;;;;5078544;28;20027;-77
2023/07/06 08:23:01;;;;;;;3.60;2.22;;;;;;;;;;5078615;28;20035;-77
2023/07/06 08:25:28;;;;;;;5.80;2.25;;;;;;;;;;5078168;28;20430;-77
2023/07/06 08:27:56;;;;;;;5.13;2.08;;;;;;;;;;5096477;28;20059;-78
2023/07/06 08:30:22;;;;;;;4.43;2.45;;;;;;;;;;5061591;28;20403;-77
2023/07/06 08:32:49;;;;;;;5.45;2.65;;;;;;;;;;5096362;28;20031;-77
2023/07/06 08:35:16;;;;;;;3.85;2.20;;;;;;;;;;5096664;28;20028;-77
2023/07/06 08:37:41;;;;;;;3.80;2.13;;;;;;;;;;5044994;28;20038;-77
2023/07/06 08:40:12;;;;;;;5.05;2.17;;;;;;;;;;5096123;28;20115;-77
2023/07/06 08:42:37;;;;;;;4.10;2.28;;;;;;;;;;5078283;28;20024;-77
2023/07/06 08:45:03;;;;;;;4.40;2.30;;;;;;;;;;5078236;28;20035;-78
2023/07/06 08:47:28;;;;;;;3.38;2.05;;;;;;;;;;5096046;28;20032;-77
2023/07/06 08:49:57;;;;;;;3.85;2.72;;;;;;;;;;5078279;28;20025;-77
2023/07/06 08:52:24;;;;;;;4.25;2.38;;;;;;;;;;5078325;28;20032;-77
2023/07/06 08:54:50;;;;;;;3.78;2.20;;;;;;;;;;5078036;28;20024;-77
2023/07/06 08:57:20;;;;;;;4.10;2.28;;;;;;;;;;5077718;28;20111;-77
2023/07/06 08:59:48;;;;;;;4.25;2.20;;;;;;;;;;5096063;28;20470;-77
2023/07/06 09:02:26;;;;;;;3.95;1.80;;;;;;;;;;5077950;28;20111;-78
2023/07/06 09:04:55;;;;;;;4.03;2.30;;;;;;;;;;5059778;28;20436;-77
2023/07/06 09:07:30;;;;;;;6.82;2.35;;;;;;;;;;5095959;28;20110;-77
2023/07/06 09:09:57;;;;;;;3.53;2.33;;;;;;;;;;5060899;28;20027;-77
2023/07/06 09:12:32;;;;;;;4.53;2.20;;;;;;;;;;5095492;28;20059;-77
2023/07/06 09:14:58;;;;;;;3.72;2.00;;;;;;;;;;5077892;28;20376;-76
2023/07/06 09:17:24;;;;;;;3.88;2.00;;;;;;;;;;5077318;28;20027;-78
2023/07/06 09:19:51;;;;;;;3.58;2.17;;;;;;;;;;5077448;28;20130;-77
2023/07/06 09:22:18;;;;;;;4.90;2.40;;;;;;;;;;5077783;28;20082;-77
2023/07/06 09:24:46;;;;;;;3.03;1.90;;;;;;;;;;5077642;28;20048;-77
2023/07/06 09:27:22;;;;;;;3.83;2.30;;;;;;;;;;5077679;28;20054;-77
2023/07/06 09:30:00;;;;;;;3.25;2.10;;;;;;;;;;5060467;28;20386;-76
2023/07/06 09:32:27;;;;;;;3.28;2.15;;;;;;;;;;5095516;28;20393;-77
2023/07/06 09:34:55;;;;;;;2.40;2.03;;;;;;;;;;5095500;28;20501;-77
2023/07/06 09:37:22;;;;;;;9.82;2.35;;;;;;;;;;5077598;28;20020;-77
2023/07/06 09:40:21;;;;;;;5.43;2.70;;;;;;;;;;5095109;28;20580;-77
2023/07/06 09:42:49;;;;;;;4.18;2.08;;;;;;;;;;5023318;28;20497;-77
2023/07/06 09:45:26;;;;;;;5.15;2.30;;;;;;;;;;5094812;28;20368;-77
2023/07/06 09:47:57;;;;;;;4.50;2.10;;;;;;;;;;5076841;28;20031;-77
2023/07/06 09:50:50;;;;;;;3.53;2.08;;;;;;;;;;5076797;28;20390;-77
2023/07/06 09:53:24;;;;;;;3.22;1.92;;;;;;;;;;5072483;28;20044;-77
2023/07/06 09:55:49;;;;;;;5.28;2.15;;;;;;;;;;5060128;28;20458;-77
2023/07/06 09:58:24;;;;;;;2.88;1.92;;;;;;;;;;5076550;28;20073;-78
2023/07/06 10:01:01;;;;;;;4.10;2.00;;;;;;;;;;5059864;28;20085;-77
2023/07/06 10:04:02;;;;;;;4.70;2.10;;;;;;;;;;5062147;28;20031;-77
2023/07/06 10:06:56;;;;;;;5.70;2.35;;;;;;;;;;5055959;28;20055;-78
2023/07/06 10:10:06;;;;;;;3.40;2.10;;;;;;;;;;5094406;28;20467;-77
2023/07/06 10:12:54;;;;;;;3.35;1.95;;;;;;;;;;5083693;28;20071;-76
2023/07/06 10:15:37;;;;;;;8.07;2.30;;;;;;;;;;5094561;28;20023;-76
2023/07/06 10:18:13;;;;;;;7.53;2.20;;;;;;;;;;5094651;28;20032;-76
2023/07/06 10:21:11;;;;;;;4.60;2.15;;;;;;;;;;5094240;28;20108;-76
2023/07/06 10:24:14;;;;;;;2.63;1.90;;;;;;;;;;5007314;28;20550;-76
2023/07/06 10:26:48;;;;;;;4.47;1.95;;;;;;;;;;4976456;28;20122;-76
2023/07/06 10:29:17;;;;;;;4.00;2.30;;;;;;;;;;4976819;28;20042;-76
2023/07/06 10:31:53;;;;;;;4.57;2.28;;;;;;;;;;4976411;28;20057;-76
2023/07/06 10:34:38;;;;;;;5.45;1.98;;;;;;;;;;4976440;28;20043;-76
2023/07/06 10:37:05;;;;;;;3.40;1.85;;;;;;;;;;4976870;28;20101;-76
2023/07/06 10:39:30;;;;;;;3.25;1.88;;;;;;;;;;4976212;28;20461;-76
2023/07/06 10:42:04;;;;;;;3.08;1.77;;;;;;;;;;4976050;28;20089;-76
2023/07/06 10:44:51;;;;;;;5.20;1.90;;;;;;;;;;4976846;28;20098;-76
2023/07/06 10:47:35;;;;;;;6.82;2.50;;;;;;;;;;4991018;28;20042;-78
2023/07/06 10:50:12;;;;;;;5.93;2.63;;;;;;;;;;4991355;28;20037;-77
2023/07/06 10:52:40;;;;;;;4.43;2.30;;;;;;;;;;4959142;28;20381;-78
2023/07/06 10:55:12;;;;;;;7.47;2.20;;;;;;;;;;4958824;28;20038;-77
2023/07/06 10:57:43;;;;;;;2.95;2.03;;;;;;;;;;4975024;28;20076;-78
2023/07/06 11:00:16;;;;;;;4.85;2.17;;;;;;;;;;5023836;28;20122;-78
2023/07/06 11:02:43;;;;;;;2.47;1.83;;;;;;;;;;5092936;28;20020;-77
2023/07/06 11:05:32;;;;;;;3.80;2.08;;;;;;;;;;5074935;28;20344;-77
2023/07/06 11:08:10;;;;;;;4.95;2.20;;;;;;;;;;5058066;28;20115;-78
2023/07/06 11:10:37;;;;;;;6.03;2.15;;;;;;;;;;5076555;28;20028;-79
2023/07/06 11:13:02;;;;;;;6.68;2.28;;;;;;;;;;5064084;28;20051;-79
2023/07/06 11:15:40;;;;;;;5.95;2.28;;;;;;;;;;5055246;28;20021;-79
2023/07/06 11:18:15;;;;;;;4.35;2.22;;;;;;;;;;5073636;28;20037;-79
2023/07/06 11:20:42;;;;;;;3.97;2.25;;;;;;;;;;5074224;28;20031;-78
2023/07/06 11:23:17;;;;;;;3.72;1.90;;;;;;;;;;5025359;28;20028;-78
2023/07/06 11:25:45;;;;;;;2.83;2.00;;;;;;;;;;5073252;28;20525;-78
2023/07/06 11:28:12;;;;;;;4.35;2.47;;;;;;;;;;5039345;28;20056;-79
2023/07/06 11:30:54;;;;;;;4.68;2.05;;;;;;;;;;5077875;28;20418;-78
2023/07/06 11:33:56;;;;;;;5.43;2.15;;;;;;;;;;5059527;28;20430;-79
2023/07/06 11:36:30;;;;;;;4.53;2.45;;;;;;;;;;5039226;28;20440;-79
2023/07/06 11:39:10;;;;;;;3.95;2.08;;;;;;;;;;5059525;28;20021;-79
2023/07/06 11:41:42;;;;;;;4.35;1.90;;;;;;;;;;5077053;28;20390;-79
2023/07/06 11:44:24;;;;;;;3.38;2.00;;;;;;;;;;5059419;28;20418;-79
2023/07/06 11:47:17;;;;;;;6.47;2.60;;;;;;;;;;5076968;28;20031;-80
2023/07/06 11:49:57;;;;;;;8.10;2.42;;;;;;;;;;5076919;28;20043;-80
2023/07/06 11:52:26;;;;;;;3.08;1.70;;;;;;;;;;5077124;28;20020;-79
2023/07/06 11:55:05;;;;;;;5.18;2.08;;;;;;;;;;5058823;28;20032;-80
2023/07/06 11:57:43;;;;;;;2.67;1.88;;;;;;;;;;5060975;28;20070;-80
2023/07/06 12:00:37;;;;;;;5.53;2.00;;;;;;;;;;5077011;28;20078;-80
2023/07/06 12:03:08;;;;;;;4.30;2.00;;;;;;;;;;5063033;28;20382;-80
2023/07/06 12:05:47;;;;;;;2.83;1.70;;;;;;;;;;5058769;28;20482;-79
2023/07/06 12:08:16;;;;;;;6.90;2.10;;;;;;;;;;5076592;28;20043;-80
2023/07/06 12:10:48;;;;;;;3.25;1.90;;;;;;;;;;5058543;28;20025;-79
2023/07/06 12:13:21;;;;;;;4.40;2.42;;;;;;;;;;5089042;28;20044;-79
2023/07/06 12:15:48;;;;;;;3.55;1.55;;;;;;;;;;5079366;28;20390;-79
2023/07/06 12:18:15;;;;;;;6.45;1.90;;;;;;;;;;5078517;28;20036;-80
2023/07/06 12:20:40;;;;;;;4.82;2.00;;;;;;;;;;5078663;28;20099;-79
2023/07/06 12:23:12;;;;;;;4.63;1.85;;;;;;;;;;5096762;28;20498;-79
2023/07/06 12:25:40;;;;;;;3.65;1.83;;;;;;;;;;5096519;28;20024;-79
2023/07/06 12:28:07;;;;;;;6.68;2.00;;;;;;;;;;5078565;28;20055;-80
2023/07/06 12:30:34;;;;;;;5.05;2.05;;;;;;;;;;5078882;28;20466;-81
2023/07/06 12:33:04;;;;;;;3.65;1.67;;;;;;;;;;5078377;28;20085;-80
2023/07/06 12:35:30;;;;;;;2.75;1.50;;;;;;;;;;5096337;28;20027;-80
2023/07/06 12:37:56;;;;;;;3.20;1.83;;;;;;;;;;5078534;28;20035;-80
2023/07/06 12:40:25;;;;;;;2.72;1.60;;;;;;;;;;5077471;28;20024;-80
2023/07/06 12:42:52;;;;;;;4.57;1.83;;;;;;;;;;5079256;28;20050;-81
2023/07/06 12:45:20;;;;;;;2.63;1.60;;;;;;;;;;5061331;28;20393;-81
2023/07/06 12:47:47;;;;;;;3.47;1.58;;;;;;;;;;5078426;28;20032;-81
2023/07/06 12:50:19;;;;;;;4.63;1.67;;;;;;;;;;5061745;28;20046;-81
2023/07/06 12:52:45;;;;;;;3.60;1.33;;;;;;;;;;5078804;28;20032;-81
2023/07/06 12:55:17;;;;;;;4.40;1.63;;;;;;;;;;5096034;28;20028;-81
2023/07/06 12:57:43;;;;;;;2.30;1.42;;;;;;;;;;5078316;28;20020;-81
2023/07/06 13:00:17;;;;;;;2.80;1.20;;;;;;;;;;5077663;28;20529;-80
2023/07/06 13:02:43;;;;;;;1.63;1.27;;;;;;;;;;5061028;28;20024;-80
2023/07/06 13:05:17;;;;;;;2.10;1.50;;;;;;;;;;5060757;28;20126;-80
2023/07/06 13:07:43;;;;;;;2.42;1.25;;;;;;;;;;5077864;28;20028;-80
2023/07/06 13:10:16;;;;;;;2.92;1.30;;;;;;;;;;5061428;28;20124;-80
2023/07/06 13:12:45;;;;;;;2.13;1.58;;;;;;;;;;5071886;28;20048;-80
2023/07/06 13:15:23;;;;;;;1.65;1.30;;;;;;;;;;5058145;28;20039;-80
2023/07/06 13:18:01;;;;;;;1.67;1.15;;;;;;;;;;5057709;28;20029;-80
2023/07/06 13:20:26;;;;;;;1.50;1.20;;;;;;;;;;5058322;28;20112;-80
2023/07/06 13:22:52;;;;;;;2.05;1.30;;;;;;;;;;5057413;28;20453;-80
2023/07/06 13:25:21;;;;;;;1.65;1.10;;;;;;;;;;5057181;28;20032;-80
2023/07/06 13:27:47;;;;;;;1.85;1.02;;;;;;;;;;5057423;28;20103;-80
2023/07/06 13:30:14;;;;;;;2.05;1.17;;;;;;;;;;5040570;28;20128;-80
2023/07/06 13:32:40;;;;;;;2.80;1.10;;;;;;;;;;5057583;28;20055;-80
2023/07/06 13:35:07;;;;;;;1.40;1.02;;;;;;;;;;5074930;28;20089;-80
2023/07/06 13:37:34;;;;;;;2.92;1.17;;;;;;;;;;5040722;28;20024;-80
2023/07/06 13:40:00;;;;;;;1.50;1.13;;;;;;;;;;5057491;28;20025;-81
2023/07/06 13:42:28;;;;;;;1.25;0.95;;;;;;;;;;5040369;28;20500;-80
2023/07/06 13:44:54;;;;;;;1.77;1.20;;;;;;;;;;5057269;28;20031;-80
2023/07/06 13:47:19;;;;;;;1.92;1.13;;;;;;;;;;5056781;28;20114;-80
2023/07/06 13:49:47;;;;;;;1.58;1.00;;;;;;;;;;5056935;28;20052;-80
2023/07/06 13:52:13;;;;;;;1.02;0.90;;;;;;;;;;5056716;28;20027;-80
2023/07/06 13:54:38;;;;;;;1.67;0.98;;;;;;;;;;5074804;28;20475;-80
2023/07/06 13:57:04;;;;;;;2.10;1.17;;;;;;;;;;5040428;28;20029;-80
2023/07/06 13:59:31;;;;;;;2.88;0.95;;;;;;;;;;5058826;28;20040;-80
2023/07/06 14:02:02;;;;;;;1.58;1.08;;;;;;;;;;5056463;28;20028;-80
2023/07/06 14:04:32;;;;;;;1.55;1.20;;;;;;;;;;5074287;28;20083;-80
2023/07/06 14:06:57;;;;;;;1.33;1.02;;;;;;;;;;5056315;28;20025;-80
2023/07/06 14:09:23;;;;;;;1.23;0.90;;;;;;;;;;5056744;28;20124;-80
2023/07/06 14:11:48;;;;;;;4.05;1.20;;;;;;;;;;5056498;28;20060;-80
2023/07/06 14:14:14;;;;;;;1.85;1.05;;;;;;;;;;5093210;28;20127;-80
2023/07/06 14:16:40;;;;;;;1.58;1.05;;;;;;;;;;5076041;28;20063;-79
2023/07/06 14:19:06;;;;;;;0.80;0.80;;;;;;;;;;5076404;28;20077;-79
2023/07/06 14:21:35;;;;;;;1.83;1.00;;;;;;;;;;5076678;28;20028;-80
2023/07/06 14:24:01;;;;;;;1.95;0.90;;;;;;;;;;5076653;28;20465;-79
2023/07/06 14:26:27;;;;;;;2.22;1.17;;;;;;;;;;5059794;28;20032;-80
2023/07/06 14:28:54;;;;;;;1.52;1.08;;;;;;;;;;5076303;28;20035;-79
2023/07/06 14:31:20;;;;;;;1.98;1.20;;;;;;;;;;5076112;28;20028;-79
2023/07/06 14:33:46;;;;;;;2.15;1.25;;;;;;;;;;5059421;28;20468;-80
2023/07/06 14:36:12;;;;;;;1.00;0.90;;;;;;;;;;5075976;28;20027;-80
2023/07/06 14:38:37;;;;;;;0.95;0.90;;;;;;;;;;5059173;28;20123;-80
2023/07/06 14:41:03;;;;;;;1.58;0.90;;;;;;;;;;5093867;28;20058;-80
2023/07/06 14:43:29;;;;;;;2.78;1.02;;;;;;;;;;5042486;28;20390;-79
2023/07/06 14:45:55;;;;;;;1.20;0.95;;;;;;;;;;5059467;28;20470;-77
2023/07/06 14:48:21;;;;;;;1.45;0.85;;;;;;;;;;5059163;28;20413;-78
2023/07/06 14:50:46;;;;;;;4.18;1.10;;;;;;;;;;5075984;28;20028;-78
2023/07/06 14:53:12;;;;;;;0.95;0.88;;;;;;;;;;5075819;28;20035;-78
2023/07/06 14:55:37;;;;;;;1.40;0.93;;;;;;;;;;5075633;28;20399;-78
2023/07/06 14:58:04;;;;;;;1.50;1.30;;;;;;;;;;5059069;28;20497;-78